createdAt,value
2023-01-08T00:01:59.134Z,7.60
2023-01-08T00:04:33.092Z,9.30
2023-01-08T00:07:11.444Z,9.30
2023-01-08T00:09:38.515Z,10.70
2023-01-08T00:12:07.092Z,11.00
2023-01-08T00:14:42.432Z,9.40
2023-01-08T00:17:10.378Z,10.10
2023-01-08T00:19:44.998Z,10.80
2023-01-08T00:22:13.738Z,11.50
2023-01-08T00:27:35.511Z,13.00
2023-01-08T00:30:03.501Z,13.80
2023-01-08T00:32:31.949Z,14.50
2023-01-08T00:35:01.534Z,16.50
2023-01-08T00:37:30.083Z,16.10
2023-01-08T00:39:59.719Z,15.70
2023-01-08T00:42:30.489Z,16.30
2023-01-08T00:44:57.938Z,18.30
2023-01-08T00:47:24.847Z,17.40
2023-01-08T00:49:56.374Z,15.80
2023-01-08T00:52:23.640Z,12.60
2023-01-08T00:54:50.593Z,13.80
2023-01-08T00:57:19.066Z,8.70
2023-01-08T00:59:48.852Z,6.00
2023-01-08T01:02:19.649Z,12.30
2023-01-08T01:04:46.834Z,17.50
2023-01-08T01:07:38.679Z,23.40
2023-01-08T01:10:07.626Z,27.00
2023-01-08T01:12:43.466Z,28.60
2023-01-08T01:15:26.645Z,30.90
2023-01-08T01:17:54.894Z,31.10
2023-01-08T01:20:24.052Z,32.60
2023-01-08T01:22:52.464Z,35.30
2023-01-08T01:25:23.234Z,34.20
2023-01-08T01:28:00.630Z,33.30
2023-01-08T01:30:28.025Z,34.80
2023-01-08T01:32:56.221Z,34.20
2023-01-08T01:35:46.232Z,35.00
2023-01-08T01:38:19.055Z,35.70
2023-01-08T01:40:46.249Z,35.60
2023-01-08T01:43:19.488Z,35.60
2023-01-08T01:45:48.258Z,35.90
2023-01-08T01:48:23.902Z,34.30
2023-01-08T01:50:55.047Z,35.40
2023-01-08T01:53:32.650Z,34.40
2023-01-08T01:56:02.395Z,33.50
2023-01-08T01:58:33.329Z,32.90
2023-01-08T02:01:07.287Z,33.10
2023-01-08T02:03:37.847Z,33.40
2023-01-08T02:06:31.172Z,31.10
2023-01-08T02:09:17.745Z,31.00
2023-01-08T02:12:17.676Z,30.20
2023-01-08T02:14:56.094Z,29.30
2023-01-08T02:17:37.758Z,27.40
2023-01-08T02:20:18.577Z,28.70
2023-01-08T02:23:14.244Z,29.50
2023-01-08T02:26:06.928Z,30.10
2023-01-08T02:28:49.653Z,28.30
2023-01-08T02:31:19.379Z,27.80
2023-01-08T02:33:49.470Z,28.70
2023-01-08T02:36:19.156Z,29.10
2023-01-08T02:39:28.676Z,29.30
2023-01-08T02:42:28.871Z,29.60
2023-01-08T02:45:27.350Z,29.90
2023-01-08T02:48:27.842Z,25.20
2023-01-08T02:51:14.403Z,24.70
2023-01-08T02:53:48.892Z,26.50
2023-01-08T02:56:20.916Z,27.80
2023-01-08T02:58:52.376Z,28.10
2023-01-08T03:01:24.137Z,30.00
2023-01-08T03:03:58.849Z,28.70
2023-01-08T03:06:27.121Z,28.40
2023-01-08T03:09:01.993Z,27.70
2023-01-08T03:11:39.096Z,27.70
2023-01-08T03:14:45.846Z,27.80
2023-01-08T03:17:24.031Z,28.30
2023-01-08T03:20:01.285Z,28.20
2023-01-08T03:22:33.350Z,28.40
2023-01-08T03:25:02.782Z,28.10
2023-01-08T03:27:33.813Z,28.00
2023-01-08T03:30:07.362Z,27.90
2023-01-08T03:32:41.036Z,27.20
2023-01-08T03:35:16.701Z,28.20
2023-01-08T03:37:50.676Z,28.20
2023-01-08T03:40:26.242Z,29.20
2023-01-08T03:42:53.361Z,30.00
2023-01-08T03:45:43.339Z,30.00
2023-01-08T03:48:21.173Z,31.00
2023-01-08T03:50:55.253Z,32.90
2023-01-08T03:53:34.203Z,32.90
2023-01-08T03:56:14.531Z,33.60
2023-01-08T03:58:48.280Z,33.20
2023-01-08T04:01:17.544Z,31.90
2023-01-08T04:03:54.312Z,34.30
2023-01-08T04:09:04.206Z,35.90
2023-01-08T04:11:39.655Z,36.30
2023-01-08T04:14:08.079Z,36.70
2023-01-08T04:16:35.338Z,37.20
2023-01-08T04:19:04.698Z,37.30
2023-01-08T04:21:34.704Z,38.60
2023-01-08T04:24:01.662Z,40.20
2023-01-08T04:26:31.088Z,39.80
2023-01-08T04:28:57.973Z,39.30
2023-01-08T04:31:26.726Z,39.40
2023-01-08T04:33:54.421Z,39.10
2023-01-08T04:36:21.796Z,38.50
2023-01-08T04:38:53.160Z,37.20
2023-01-08T04:41:24.598Z,36.10
2023-01-08T04:43:55.002Z,30.70
2023-01-08T04:46:22.121Z,29.80
2023-01-08T04:48:48.987Z,29.30
2023-01-08T04:51:16.354Z,30.40
2023-01-08T04:53:46.409Z,30.10
2023-01-08T04:56:17.480Z,30.80
2023-01-08T04:58:45.397Z,29.70
2023-01-08T05:01:21.272Z,30.10
2023-01-08T05:03:56.416Z,30.00
2023-01-08T05:06:34.077Z,30.80
2023-01-08T05:09:01.173Z,31.60
2023-01-08T05:11:29.568Z,30.80
2023-01-08T05:14:08.152Z,29.80
2023-01-08T05:16:35.615Z,30.00
2023-01-08T05:19:03.905Z,30.00
2023-01-08T05:21:33.388Z,30.20
2023-01-08T05:24:00.295Z,29.50
2023-01-08T05:26:28.498Z,30.60
2023-01-08T05:28:56.614Z,33.00
2023-01-08T05:31:25.506Z,34.10
2023-01-08T05:33:58.655Z,33.90
2023-01-08T05:36:31.543Z,35.20
2023-01-08T05:39:02.488Z,36.00
2023-01-08T05:41:30.791Z,36.30
2023-01-08T05:43:59.541Z,36.90
2023-01-08T05:46:32.968Z,36.90
2023-01-08T05:49:14.671Z,37.20
2023-01-08T05:51:45.922Z,37.70
2023-01-08T05:54:13.348Z,37.70
2023-01-08T05:56:42.223Z,36.40
2023-01-08T05:59:13.271Z,36.70
2023-01-08T06:01:42.051Z,35.70
2023-01-08T06:06:51.621Z,38.70
2023-01-08T06:09:19.302Z,40.00
2023-01-08T06:11:46.422Z,39.70
2023-01-08T06:14:20.205Z,41.00
2023-01-08T06:16:48.875Z,41.30
2023-01-08T06:19:19.633Z,41.90
2023-01-08T06:21:47.940Z,41.40
2023-01-08T06:24:16.106Z,40.10
2023-01-08T06:26:45.679Z,40.30
2023-01-08T06:29:12.691Z,40.70
2023-01-08T06:31:41.639Z,40.80
2023-01-08T06:34:09.815Z,40.40
2023-01-08T06:36:38.270Z,40.40
2023-01-08T06:39:09.107Z,39.00
2023-01-08T06:41:37.512Z,36.80
2023-01-08T06:44:07.947Z,33.60
2023-01-08T06:46:47.104Z,34.30
2023-01-08T06:49:24.154Z,32.60
2023-01-08T06:51:52.856Z,34.10
2023-01-08T06:54:23.051Z,33.50
2023-01-08T06:56:54.027Z,30.60
2023-01-08T06:59:22.185Z,30.60
2023-01-08T07:01:54.527Z,30.30
2023-01-08T07:04:23.402Z,26.50
2023-01-08T07:06:56.623Z,28.60
2023-01-08T07:09:23.962Z,29.90
2023-01-08T07:11:51.341Z,30.90
2023-01-08T07:14:25.188Z,33.60
2023-01-08T07:16:54.828Z,34.20
2023-01-08T07:19:23.866Z,35.10
2023-01-08T07:21:51.569Z,35.30
2023-01-08T07:24:19.664Z,35.70
2023-01-08T07:26:47.957Z,35.60
2023-01-08T07:29:18.303Z,36.70
2023-01-08T07:31:47.716Z,37.00
2023-01-08T07:34:17.682Z,36.40
2023-01-08T07:36:45.889Z,34.80
2023-01-08T07:42:07.489Z,31.30
2023-01-08T07:44:34.498Z,32.80
2023-01-08T07:47:02.564Z,31.10
2023-01-08T07:49:29.968Z,33.20
2023-01-08T07:51:56.955Z,32.10
2023-01-08T07:54:23.926Z,26.60
2023-01-08T07:56:50.890Z,26.40
2023-01-08T07:59:17.811Z,28.30
2023-01-08T08:01:49.541Z,28.10
2023-01-08T08:04:16.822Z,29.10
2023-01-08T08:06:43.872Z,32.20
2023-01-08T08:09:10.820Z,34.80
2023-01-08T08:11:38.622Z,35.70
2023-01-08T08:14:19.032Z,36.30
2023-01-08T08:17:08.714Z,37.20
2023-01-08T08:19:38.270Z,37.80
2023-01-08T08:22:05.519Z,38.30
2023-01-08T08:24:33.893Z,39.10
2023-01-08T08:27:00.786Z,39.70
2023-01-08T08:29:27.803Z,40.20
2023-01-08T08:31:56.784Z,40.70
2023-01-08T08:34:24.762Z,41.30
2023-01-08T08:36:51.737Z,38.80
2023-01-08T08:39:20.517Z,39.20
2023-01-08T08:41:47.549Z,38.60
2023-01-08T08:44:14.589Z,39.00
2023-01-08T08:46:42.821Z,39.00
2023-01-08T08:49:11.218Z,38.30
2023-01-08T08:51:41.494Z,39.50
2023-01-08T08:54:08.614Z,40.10
2023-01-08T08:56:35.659Z,40.20
2023-01-08T08:59:03.154Z,40.90
2023-01-08T09:01:30.470Z,41.80
2023-01-08T09:03:57.862Z,42.40
2023-01-08T09:06:27.964Z,41.20
2023-01-08T09:08:59.266Z,36.20
2023-01-08T09:11:26.758Z,36.80
2023-01-08T09:13:53.885Z,35.50
2023-01-08T09:16:21.059Z,33.70
2023-01-08T09:18:51.243Z,32.20
2023-01-08T09:21:18.203Z,33.20
2023-01-08T09:23:45.173Z,31.80
2023-01-08T09:26:12.201Z,31.10
2023-01-08T09:28:43.665Z,29.70
2023-01-08T09:31:10.673Z,28.80
2023-01-08T09:33:37.727Z,26.90
2023-01-08T09:36:05.096Z,18.10
2023-01-08T09:38:32.036Z,19.60
2023-01-08T09:41:04.502Z,18.60
2023-01-08T09:43:35.805Z,19.60
2023-01-08T09:46:07.595Z,19.60
2023-01-08T09:48:40.533Z,19.70
2023-01-08T09:51:14.796Z,20.30
2023-01-08T09:53:45.280Z,17.00
2023-01-08T09:56:17.688Z,19.70
2023-01-08T09:58:53.636Z,20.30
2023-01-08T10:01:35.799Z,21.20
2023-01-08T10:04:19.903Z,21.30
2023-01-08T10:06:56.339Z,19.50
2023-01-08T10:09:30.689Z,19.60
2023-01-08T10:12:03.112Z,16.90
2023-01-08T10:14:39.173Z,20.40
2023-01-08T10:17:15.460Z,18.90
2023-01-08T10:19:42.689Z,20.50
2023-01-08T10:22:18.671Z,21.30
2023-01-08T10:24:45.752Z,22.10
2023-01-08T10:27:19.423Z,21.60
2023-01-08T10:29:47.536Z,20.10
2023-01-08T10:32:31.283Z,18.90
2023-01-08T10:34:59.071Z,16.30
2023-01-08T10:37:50.518Z,13.70
2023-01-08T10:40:46.880Z,16.50
2023-01-08T10:43:18.113Z,18.90
2023-01-08T10:46:02.540Z,20.00
2023-01-08T10:48:33.368Z,20.30
2023-01-08T10:51:14.625Z,19.50
2023-01-08T10:53:41.912Z,20.90
2023-01-08T10:56:23.485Z,22.00
2023-01-08T10:58:53.502Z,22.20
2023-01-08T11:01:23.049Z,23.40
2023-01-08T11:03:52.878Z,23.40
2023-01-08T11:06:25.173Z,20.10
2023-01-08T11:08:55.817Z,22.60
2023-01-08T11:11:23.735Z,24.70
2023-01-08T11:14:01.572Z,26.80
2023-01-08T11:16:35.489Z,28.10
2023-01-08T11:19:06.271Z,28.80
2023-01-08T11:21:37.052Z,29.30
2023-01-08T11:24:18.047Z,34.00
2023-01-08T11:26:52.718Z,34.70
2023-01-08T11:29:26.976Z,34.40
2023-01-08T11:32:09.947Z,34.50
2023-01-08T11:34:55.508Z,32.80
2023-01-08T11:37:52.476Z,34.20
2023-01-08T11:40:39.910Z,36.70
2023-01-08T11:43:26.684Z,39.50
2023-01-08T11:45:56.616Z,39.40
2023-01-08T11:48:50.027Z,40.90
2023-01-08T11:51:48.518Z,40.60
2023-01-08T11:54:41.803Z,40.80
2023-01-08T11:57:25.273Z,40.70
2023-01-08T12:00:01.544Z,43.40
2023-01-08T12:02:52.576Z,43.20
2023-01-08T12:05:42.146Z,49.30
2023-01-08T12:08:32.598Z,45.10
2023-01-08T12:11:05.615Z,46.20
2023-01-08T12:14:02.865Z,47.70
2023-01-08T12:16:59.151Z,48.30
2023-01-08T12:19:47.726Z,50.10
2023-01-08T12:22:28.238Z,50.70
2023-01-08T12:25:16.760Z,50.80
2023-01-08T12:28:02.249Z,50.80
2023-01-08T12:31:06.385Z,50.60
2023-01-08T12:33:53.494Z,51.10
2023-01-08T12:36:35.323Z,51.30
2023-01-08T12:39:27.906Z,51.40
2023-01-08T12:42:03.292Z,51.60
2023-01-08T12:44:32.498Z,52.80
2023-01-08T12:47:03.893Z,52.30
2023-01-08T12:49:59.007Z,51.40
2023-01-08T12:52:36.799Z,51.00
2023-01-08T12:55:25.730Z,51.30
2023-01-08T12:58:02.535Z,51.40
2023-01-08T13:00:58.935Z,50.40
2023-01-08T13:03:28.242Z,46.70
2023-01-08T13:06:10.011Z,47.10
2023-01-08T13:08:38.974Z,46.20
2023-01-08T13:11:06.826Z,46.80
2023-01-08T13:13:37.241Z,45.40
2023-01-08T13:16:07.090Z,45.70
2023-01-08T13:18:34.400Z,47.90
2023-01-08T13:21:02.993Z,46.20
2023-01-08T13:23:38.461Z,43.70
2023-01-08T13:26:07.096Z,45.50
2023-01-08T13:28:37.039Z,46.00
2023-01-08T13:31:27.313Z,47.30
2023-01-08T13:33:55.549Z,47.70
2023-01-08T13:36:28.070Z,48.50
2023-01-08T13:39:02.402Z,45.20
2023-01-08T13:41:33.102Z,46.80
2023-01-08T13:44:19.716Z,46.80
2023-01-08T13:46:54.363Z,45.90
2023-01-08T13:49:28.164Z,46.10
2023-01-08T13:51:55.173Z,46.10
2023-01-08T13:54:37.821Z,46.80
2023-01-08T13:57:24.131Z,47.20
2023-01-08T13:59:57.352Z,48.50
2023-01-08T14:02:33.434Z,48.20
2023-01-08T14:05:02.226Z,47.10
2023-01-08T14:07:29.364Z,48.10
2023-01-08T14:10:06.951Z,48.00
2023-01-08T14:12:35.203Z,47.50
2023-01-08T14:15:04.379Z,45.50
2023-01-08T14:17:32.665Z,46.00
2023-01-08T14:19:59.932Z,46.20
2023-01-08T14:22:31.745Z,46.70
2023-01-08T14:25:02.805Z,47.60
2023-01-08T14:27:31.550Z,48.20
2023-01-08T14:29:58.853Z,47.10
2023-01-08T14:32:31.101Z,47.80
2023-01-08T14:35:00.074Z,47.60
2023-01-08T14:37:27.131Z,47.60
2023-01-08T14:39:55.110Z,47.70
2023-01-08T14:42:44.402Z,47.80
2023-01-08T14:45:32.674Z,49.20
2023-01-08T14:48:34.285Z,49.80
2023-01-08T14:51:09.214Z,49.40
2023-01-08T14:53:38.861Z,49.20
2023-01-08T14:56:06.933Z,48.70
2023-01-08T14:58:43.320Z,48.80
2023-01-08T15:01:19.982Z,49.60
2023-01-08T15:03:52.339Z,49.80
2023-01-08T15:06:27.591Z,50.40
2023-01-08T15:08:54.714Z,49.90
2023-01-08T15:11:31.288Z,49.60
2023-01-08T15:13:58.546Z,49.30
2023-01-08T15:16:39.948Z,49.20
2023-01-08T15:19:06.906Z,50.00
2023-01-08T15:21:35.138Z,50.70
2023-01-08T15:24:03.885Z,50.20
2023-01-08T15:26:31.626Z,49.50
2023-01-08T15:29:04.987Z,50.70
2023-01-08T15:31:39.456Z,50.00
2023-01-08T15:34:08.761Z,50.70
2023-01-08T15:36:35.658Z,51.40
2023-01-08T15:39:03.607Z,51.00
2023-01-08T15:41:54.037Z,51.10
2023-01-08T15:44:21.762Z,51.20
2023-01-08T15:46:51.015Z,53.70
2023-01-08T15:49:18.301Z,54.10
2023-01-08T15:51:48.393Z,53.80
2023-01-08T15:54:15.900Z,53.90
2023-01-08T15:56:43.200Z,54.10
2023-01-08T15:59:10.048Z,54.40
2023-01-08T16:01:37.029Z,54.90
2023-01-08T16:04:04.072Z,54.80
2023-01-08T16:06:31.661Z,54.60
2023-01-08T16:09:00.411Z,54.30
2023-01-08T16:11:27.855Z,54.80
2023-01-08T16:13:55.300Z,53.80
2023-01-08T16:16:22.390Z,53.70
2023-01-08T16:18:49.527Z,54.50
2023-01-08T16:21:16.579Z,55.00
2023-01-08T16:23:43.523Z,55.10
2023-01-08T16:26:15.264Z,55.30
2023-01-08T16:28:42.566Z,55.50
2023-01-08T16:31:10.719Z,55.70
2023-01-08T16:33:37.941Z,55.80
2023-01-08T16:36:07.911Z,55.30
2023-01-08T16:38:35.589Z,54.70
2023-01-08T16:41:02.873Z,55.00
2023-01-08T16:43:30.829Z,53.00
2023-01-08T16:46:03.325Z,53.20
2023-01-08T16:48:30.729Z,52.80
2023-01-08T16:51:05.207Z,52.50
2023-01-08T16:53:32.795Z,52.90
2023-01-08T16:56:00.447Z,53.50
2023-01-08T16:58:27.697Z,54.00
2023-01-08T17:00:54.685Z,54.10
2023-01-08T17:03:22.513Z,54.50
2023-01-08T17:05:50.144Z,55.10
2023-01-08T17:08:19.707Z,55.00
2023-01-08T17:10:47.033Z,54.20
2023-01-08T17:13:14.228Z,53.50
2023-01-08T17:15:41.346Z,53.90
2023-01-08T17:18:11.108Z,54.00
2023-01-08T17:20:37.996Z,55.10
2023-01-08T17:23:05.099Z,54.70
2023-01-08T17:25:31.991Z,54.30
2023-01-08T17:27:58.931Z,55.20
2023-01-08T17:30:25.824Z,55.20
2023-01-08T17:32:52.680Z,54.30
2023-01-08T17:35:19.599Z,55.00
2023-01-08T17:37:48.079Z,55.30
2023-01-08T17:40:15.133Z,55.40
2023-01-08T17:42:41.999Z,55.40
2023-01-08T17:45:09.427Z,55.50
2023-01-08T17:47:37.378Z,55.70
2023-01-08T17:50:05.837Z,55.60
2023-01-08T17:52:37.086Z,55.70
2023-01-08T17:55:04.380Z,55.70
2023-01-08T17:57:31.738Z,55.90
2023-01-08T18:00:00.021Z,55.90
2023-01-08T18:02:27.906Z,56.00
2023-01-08T18:04:54.839Z,56.40
2023-01-08T18:07:24.521Z,56.10
2023-01-08T18:09:54.522Z,56.40
2023-01-08T18:12:21.518Z,56.60
2023-01-08T18:14:48.352Z,56.60
2023-01-08T18:17:15.336Z,56.20
2023-01-08T18:19:42.371Z,56.30
2023-01-08T18:22:09.610Z,56.50
2023-01-08T18:24:36.557Z,56.80
2023-01-08T18:27:03.577Z,56.80
2023-01-08T18:29:30.687Z,56.30
2023-01-08T18:32:01.787Z,57.00
2023-01-08T18:34:28.702Z,57.40
2023-01-08T18:36:55.656Z,57.50
2023-01-08T18:39:22.574Z,57.20
2023-01-08T18:42:07.857Z,57.30
2023-01-08T18:44:34.999Z,57.60
2023-01-08T18:47:02.022Z,56.90
2023-01-08T18:49:29.528Z,56.60
2023-01-08T18:51:56.452Z,56.50
2023-01-08T18:54:23.336Z,56.40
2023-01-08T18:56:51.306Z,55.40
2023-01-08T18:59:21.114Z,55.90
2023-01-08T19:01:48.419Z,54.80
2023-01-08T19:04:21.260Z,53.60
2023-01-08T19:06:50.526Z,54.90
2023-01-08T19:09:17.486Z,55.40
2023-01-08T19:11:44.532Z,55.60
2023-01-08T19:14:17.625Z,54.70
2023-01-08T19:16:49.712Z,54.10
2023-01-08T19:19:19.997Z,56.30
2023-01-08T19:21:48.232Z,57.10
2023-01-08T19:24:15.352Z,55.10
2023-01-08T19:26:42.364Z,54.70
2023-01-08T19:29:11.292Z,52.30
2023-01-08T19:31:38.312Z,52.30
2023-01-08T19:34:07.519Z,51.00
2023-01-08T19:36:43.623Z,51.10
2023-01-08T19:39:14.440Z,50.40
2023-01-08T19:42:12.309Z,51.10
2023-01-08T19:44:39.352Z,52.30
2023-01-08T19:47:10.712Z,51.00
2023-01-08T19:49:49.241Z,49.20
2023-01-08T19:52:17.745Z,49.20
2023-01-08T19:54:46.793Z,53.30
2023-01-08T19:57:14.083Z,54.50
2023-01-08T19:59:44.547Z,55.30
2023-01-08T20:02:11.919Z,56.20
2023-01-08T20:04:43.539Z,57.10
2023-01-08T20:07:11.413Z,57.20
2023-01-08T20:09:39.006Z,57.80
2023-01-08T20:12:06.616Z,58.00
2023-01-08T20:14:34.408Z,57.20
2023-01-08T20:17:01.891Z,57.10
2023-01-08T20:19:28.937Z,58.30
2023-01-08T20:21:57.696Z,58.20
2023-01-08T20:24:25.097Z,58.20
2023-01-08T20:26:53.777Z,56.90
2023-01-08T20:29:20.849Z,55.80
2023-01-08T20:31:50.283Z,55.50
2023-01-08T20:34:18.678Z,49.40
2023-01-08T20:36:46.087Z,52.50
2023-01-08T20:39:15.212Z,51.00
2023-01-08T20:41:50.023Z,50.90
2023-01-08T20:44:28.572Z,49.10
2023-01-08T20:46:55.587Z,50.50
2023-01-08T20:49:25.455Z,52.40
2023-01-08T20:51:59.055Z,51.80
2023-01-08T20:54:27.754Z,51.10
2023-01-08T20:57:00.002Z,50.10
2023-01-08T20:59:27.457Z,51.40
2023-01-08T21:01:55.062Z,52.40
2023-01-08T21:04:23.012Z,51.30
2023-01-08T21:06:54.361Z,51.30
2023-01-08T21:09:21.907Z,52.40
2023-01-08T21:11:49.110Z,52.00
2023-01-08T21:14:16.169Z,51.20
2023-01-08T21:16:43.236Z,50.10
2023-01-08T21:19:11.644Z,52.50
2023-01-08T21:21:40.861Z,51.80
2023-01-08T21:24:14.941Z,53.70
2023-01-08T21:26:44.309Z,54.20
2023-01-08T21:29:16.033Z,52.40
2023-01-08T21:31:52.414Z,52.20
2023-01-08T21:34:30.367Z,52.40
2023-01-08T21:40:00.029Z,55.80
2023-01-08T21:42:45.766Z,55.50
2023-01-08T21:45:29.112Z,55.00
2023-01-08T21:47:58.874Z,55.00
2023-01-08T21:50:26.246Z,55.30
2023-01-08T21:53:11.783Z,56.60
2023-01-08T21:55:38.772Z,56.40
2023-01-08T21:58:05.902Z,55.20
2023-01-08T22:00:32.951Z,54.70
2023-01-08T22:03:00.060Z,54.60
2023-01-08T22:05:27.570Z,52.20
2023-01-08T22:07:54.504Z,52.20
2023-01-08T22:10:21.385Z,52.20
2023-01-08T22:12:48.379Z,53.10
2023-01-08T22:15:15.877Z,51.30
2023-01-08T22:17:42.774Z,50.50
2023-01-08T22:20:10.547Z,50.00
2023-01-08T22:22:38.448Z,47.20
2023-01-08T22:25:07.816Z,46.00
2023-01-08T22:27:34.809Z,45.60
2023-01-08T22:30:01.702Z,45.20
2023-01-08T22:32:28.568Z,43.90
2023-01-08T22:34:55.597Z,44.00
2023-01-08T22:37:22.794Z,45.50
2023-01-08T22:39:49.811Z,43.70
2023-01-08T22:42:17.440Z,43.50
2023-01-08T22:44:44.363Z,42.40
2023-01-08T22:47:11.379Z,39.60
2023-01-08T22:49:38.581Z,39.30
2023-01-08T22:52:06.282Z,40.70
2023-01-08T22:54:33.334Z,41.10
2023-01-08T22:57:00.191Z,39.70
2023-01-08T22:59:27.042Z,40.00
2023-01-08T23:01:54.060Z,38.50
2023-01-08T23:04:20.973Z,39.20
2023-01-08T23:06:47.930Z,39.40
2023-01-08T23:09:14.871Z,35.10
2023-01-08T23:11:41.859Z,39.70
2023-01-08T23:14:13.346Z,38.30
2023-01-08T23:16:41.768Z,38.30
2023-01-08T23:19:08.842Z,41.30
2023-01-08T23:21:38.555Z,41.60
2023-01-08T23:24:07.339Z,39.70
2023-01-08T23:26:34.246Z,37.10
2023-01-08T23:29:01.207Z,33.20
2023-01-08T23:31:30.454Z,36.60
2023-01-08T23:33:58.073Z,39.60
2023-01-08T23:36:25.691Z,40.10
2023-01-08T23:38:55.135Z,39.70
2023-01-08T23:41:26.121Z,33.90
2023-01-08T23:43:54.649Z,33.90
2023-01-08T23:46:21.546Z,35.00
2023-01-08T23:48:50.982Z,37.30
2023-01-08T23:51:18.417Z,34.40
2023-01-08T23:53:45.343Z,33.00
2023-01-08T23:56:12.694Z,31.40
2023-01-08T23:58:42.315Z,31.70
